Time;durP1;ratioP1;P1;durP2;ratioP2;P2;SDS_P1;SDS_P2;PMS_P1;PMS_P2;Temp;Humidity;BMP_temperature;BMP_pressure;BME280_temperature;BME280_humidity;BME280_pressure;Samples;Min_cycle;Max_cycle;Signal;HPM_P1;HPM_P2
2023/04/12 00:00:01;;;;;;;1.20;0.85;;;8.60;99.90;;;;;;5053894;28;20037;-69
2023/04/12 00:02:27;;;;;;;2.40;0.52;;;8.70;99.90;;;;;;5052476;28;20095;-70
2023/04/12 00:04:56;;;;;;;0.75;0.57;;;8.70;99.90;;;;;;5052163;28;20436;-70
2023/04/12 00:07:26;;;;;;;0.77;0.73;;;8.70;99.90;;;;;;5053931;28;20116;-70
2023/04/12 00:09:52;;;;;;;0.38;0.38;;;8.80;99.90;;;;;;5052177;28;20247;-71
2023/04/12 00:12:18;;;;;;;0.25;0.25;;;8.80;99.90;;;;;;5052401;28;20177;-70
2023/04/12 00:14:45;;;;;;;0.38;0.38;;;8.80;99.90;;;;;;5053541;28;20037;-69
2023/04/12 00:17:11;;;;;;;2.63;0.68;;;8.90;99.90;;;;;;5053230;28;20083;-69
2023/04/12 00:19:40;;;;;;;1.40;0.77;;;8.90;99.90;;;;;;5053480;28;20037;-72
2023/04/12 00:22:08;;;;;;;0.40;0.28;;;9.00;99.90;;;;;;5052131;28;20066;-68
2023/04/12 00:24:33;;;;;;;1.05;0.75;;;9.00;99.90;;;;;;5051903;28;20111;-70
2023/04/12 00:27:00;;;;;;;0.10;0.10;;;9.00;99.90;;;;;;5051521;28;20489;-69
2023/04/12 00:29:27;;;;;;;0.90;0.45;;;9.00;99.90;;;;;;5051977;28;20167;-69
2023/04/12 00:31:52;;;;;;;1.83;0.60;;;9.00;99.90;;;;;;5051453;28;20064;-69
2023/04/12 00:34:18;;;;;;;1.30;0.40;;;8.90;99.90;;;;;;5051949;28;20049;-70
2023/04/12 00:36:44;;;;;;;0.90;0.40;;;8.90;99.90;;;;;;5051857;28;20055;-71
2023/04/12 00:39:10;;;;;;;0.22;0.22;;;8.90;99.90;;;;;;5052604;28;20122;-72
2023/04/12 00:41:36;;;;;;;3.83;0.70;;;8.90;99.90;;;;;;5052975;28;20370;-70
2023/04/12 00:44:02;;;;;;;0.65;0.65;;;8.90;99.90;;;;;;5035386;28;20103;-69
2023/04/12 00:46:28;;;;;;;1.77;0.70;;;8.90;99.90;;;;;;5034553;28;20497;-70
2023/04/12 00:48:55;;;;;;;1.13;0.63;;;8.90;99.90;;;;;;5052063;28;20556;-70
2023/04/12 00:51:24;;;;;;;0.20;0.20;;;8.90;99.90;;;;;;5035253;28;20054;-69
2023/04/12 00:53:56;;;;;;;0.32;0.32;;;8.90;99.90;;;;;;5051003;28;20106;-70
2023/04/12 00:56:23;;;;;;;0.15;0.15;;;8.90;99.90;;;;;;5052768;28;20612;-70
2023/04/12 00:58:49;;;;;;;1.77;0.40;;;8.90;99.90;;;;;;5050949;28;20048;-70
2023/04/12 01:01:15;;;;;;;0.35;0.10;;;8.90;99.90;;;;;;5052758;28;20041;-67
2023/04/12 01:03:42;;;;;;;0.57;0.43;;;8.80;99.90;;;;;;5052809;28;20045;-71
2023/04/12 01:06:18;;;;;;;0.60;0.38;;;8.80;99.90;;;;;;5051004;28;20091;-71
2023/04/12 01:08:54;;;;;;;4.00;1.20;;;8.80;99.90;;;;;;5052717;28;20052;-70
2023/04/12 01:11:42;;;;;;;0.55;0.45;;;8.70;99.90;;;;;;5052559;28;20478;-74
2023/04/12 01:14:12;;;;;;;0.35;0.35;;;8.70;99.90;;;;;;5050960;28;20413;-70
2023/04/12 01:16:43;;;;;;;1.02;0.88;;;8.70;99.90;;;;;;5051122;28;20041;-70
2023/04/12 01:19:30;;;;;;;0.50;0.45;;;8.70;99.90;;;;;;5051251;28;20037;-72
2023/04/12 01:22:24;;;;;;;0.40;0.25;;;8.60;99.90;;;;;;5051857;28;20131;-70
2023/04/12 01:25:38;;;;;;;0.93;0.45;;;8.60;99.90;;;;;;5051240;28;20037;-71
2023/04/12 01:28:06;;;;;;;0.28;0.22;;;8.60;99.90;;;;;;5042767;28;20109;-68
2023/04/12 01:30:32;;;;;;;0.57;0.40;;;8.60;99.90;;;;;;5051220;28;20110;-71
2023/04/12 01:33:05;;;;;;;0.38;0.38;;;8.60;99.90;;;;;;5050854;28;20130;-71
2023/04/12 01:35:31;;;;;;;0.30;0.30;;;8.60;99.90;;;;;;5051463;28;20102;-70
2023/04/12 01:37:58;;;;;;;1.83;0.47;;;8.60;99.90;;;;;;5051342;28;20045;-69
2023/04/12 01:40:27;;;;;;;0.68;0.38;;;8.50;99.90;;;;;;5052043;28;20047;-71
2023/04/12 01:43:06;;;;;;;2.28;0.35;;;8.50;99.90;;;;;;5050011;28;20049;-70
2023/04/12 01:45:32;;;;;;;1.10;0.63;;;8.50;99.90;;;;;;5050631;28;20044;-71
2023/04/12 01:47:59;;;;;;;1.25;0.90;;;8.50;99.90;;;;;;5050345;28;20603;-72
2023/04/12 01:50:37;;;;;;;0.25;0.25;;;8.50;99.90;;;;;;5051786;28;20123;-71
2023/04/12 01:53:19;;;;;;;0.38;0.38;;;8.40;99.90;;;;;;5050528;28;20037;-69
2023/04/12 01:55:47;;;;;;;0.52;0.50;;;8.40;99.90;;;;;;5049858;28;20116;-71
2023/04/12 01:58:19;;;;;;;1.25;0.80;;;8.40;99.90;;;;;;5051810;28;20432;-70
2023/04/12 02:00:45;;;;;;;1.55;0.98;;;8.40;99.90;;;;;;5051627;28;20536;-70
2023/04/12 02:03:12;;;;;;;0.35;0.32;;;8.30;99.90;;;;;;5050942;28;20045;-70
2023/04/12 02:05:38;;;;;;;0.85;0.28;;;8.30;99.90;;;;;;5050555;28;20427;-70
2023/04/12 02:08:05;;;;;;;0.10;0.10;;;8.30;99.90;;;;;;5050180;28;20041;-70
2023/04/12 02:10:31;;;;;;;0.30;0.30;;;8.30;99.90;;;;;;5049625;28;20094;-69
2023/04/12 02:13:00;;;;;;;0.47;0.30;;;8.30;99.90;;;;;;5051445;28;20451;-68
2023/04/12 02:15:27;;;;;;;0.40;0.40;;;8.30;99.90;;;;;;5050141;28;20045;-70
2023/04/12 02:17:53;;;;;;;0.75;0.50;;;8.30;99.90;;;;;;5049658;28;20041;-70
2023/04/12 02:20:20;;;;;;;1.13;0.98;;;8.30;99.90;;;;;;5051421;28;20033;-69
2023/04/12 02:22:46;;;;;;;1.38;0.95;;;8.30;99.90;;;;;;5050694;28;20049;-69
2023/04/12 02:25:12;;;;;;;0.38;0.35;;;8.30;99.90;;;;;;5033360;28;20037;-71
2023/04/12 02:27:38;;;;;;;0.10;0.10;;;8.30;99.90;;;;;;5049807;28;20049;-71
2023/04/12 02:30:05;;;;;;;0.52;0.40;;;8.20;99.90;;;;;;5049304;28;20519;-70
2023/04/12 02:32:31;;;;;;;1.88;0.65;;;8.20;99.90;;;;;;5049761;28;20056;-71
2023/04/12 02:34:57;;;;;;;0.38;0.38;;;8.30;99.90;;;;;;5049730;28;20049;-69
2023/04/12 02:37:27;;;;;;;1.48;0.68;;;8.30;99.90;;;;;;5050384;28;20509;-70
2023/04/12 02:39:55;;;;;;;0.20;0.20;;;8.20;99.90;;;;;;5049986;28;20169;-70
2023/04/12 02:42:21;;;;;;;0.95;0.80;;;8.30;99.90;;;;;;5050901;28;20041;-68
2023/04/12 02:44:47;;;;;;;3.72;1.08;;;8.30;99.90;;;;;;5048838;28;20037;-72
2023/04/12 02:47:13;;;;;;;2.08;0.98;;;8.30;99.90;;;;;;5049687;28;20043;-70
2023/04/12 02:49:39;;;;;;;1.17;0.45;;;8.20;99.90;;;;;;5050916;28;20033;-70
2023/04/12 02:52:05;;;;;;;0.32;0.32;;;8.20;99.90;;;;;;5050151;28;20405;-71
2023/04/12 02:54:31;;;;;;;0.15;0.13;;;8.20;99.90;;;;;;5049523;28;20048;-70
2023/04/12 02:56:56;;;;;;;2.30;0.73;;;8.20;99.90;;;;;;5083094;28;20103;-72
2023/04/12 02:59:24;;;;;;;0.60;0.60;;;8.20;99.90;;;;;;5048718;28;20045;-71
2023/04/12 03:01:50;;;;;;;2.17;1.15;;;8.30;99.90;;;;;;5050776;28;20075;-72
2023/04/12 03:04:15;;;;;;;0.20;0.20;;;8.30;99.90;;;;;;5049345;28;20143;-71
2023/04/12 03:06:51;;;;;;;6.95;1.05;;;8.30;99.90;;;;;;5050156;28;20044;-70
2023/04/12 03:09:18;;;;;;;0.60;0.40;;;8.30;99.90;;;;;;5050607;28;20041;-69
2023/04/12 03:11:45;;;;;;;0.28;0.28;;;8.30;99.90;;;;;;5048930;28;20052;-70
2023/04/12 03:14:11;;;;;;;1.73;0.40;;;8.30;99.90;;;;;;5049339;28;20120;-71
2023/04/12 03:16:37;;;;;;;0.80;0.55;;;8.20;99.90;;;;;;5049249;28;20051;-70
2023/04/12 03:19:04;;;;;;;0.17;0.17;;;8.20;99.90;;;;;;5050021;28;20041;-71
2023/04/12 03:21:32;;;;;;;1.00;0.68;;;8.20;99.90;;;;;;5032541;28;20041;-71
2023/04/12 03:23:58;;;;;;;0.73;0.55;;;8.20;99.90;;;;;;5049463;28;20048;-70
2023/04/12 03:26:25;;;;;;;3.60;1.10;;;8.20;99.90;;;;;;5049730;28;20057;-70
2023/04/12 03:28:59;;;;;;;2.97;0.80;;;8.20;99.90;;;;;;5049169;28;20047;-70
2023/04/12 03:31:26;;;;;;;7.05;0.98;;;8.10;99.90;;;;;;5049112;28;20501;-71
2023/04/12 03:33:52;;;;;;;0.30;0.30;;;8.10;99.90;;;;;;5049931;28;20052;-70
2023/04/12 03:36:20;;;;;;;0.68;0.30;;;8.10;99.90;;;;;;5050473;28;20087;-70
2023/04/12 03:38:46;;;;;;;0.45;0.40;;;8.10;99.90;;;;;;5032271;28;20045;-69
2023/04/12 03:41:12;;;;;;;8.13;0.88;;;8.00;99.90;;;;;;5048353;28;20080;-71
2023/04/12 03:43:37;;;;;;;0.98;0.75;;;8.00;99.90;;;;;;5050509;28;20037;-71
2023/04/12 03:46:04;;;;;;;0.40;0.40;;;8.00;99.90;;;;;;5049004;28;20068;-69
2023/04/12 03:48:30;;;;;;;0.75;0.63;;;8.00;99.90;;;;;;5048399;28;20086;-72
2023/04/12 03:50:58;;;;;;;0.38;0.38;;;7.90;99.90;;;;;;5050329;28;20041;-71
2023/04/12 03:53:30;;;;;;;0.10;0.10;;;8.00;99.90;;;;;;5048911;28;20052;-69
2023/04/12 03:55:56;;;;;;;0.10;0.10;;;8.00;99.90;;;;;;5049582;28;20045;-71
2023/04/12 03:58:22;;;;;;;3.03;0.75;;;8.00;99.90;;;;;;5050207;28;20052;-69
2023/04/12 04:00:48;;;;;;;1.73;1.20;;;7.90;99.90;;;;;;5048359;28;20041;-70
2023/04/12 04:03:15;;;;;;;1.92;0.55;;;7.90;99.90;;;;;;5054000;28;20029;-68
2023/04/12 04:05:41;;;;;;;1.77;0.68;;;7.90;99.90;;;;;;5052424;28;20048;-69
2023/04/12 04:08:07;;;;;;;2.15;0.50;;;7.90;99.90;;;;;;5051809;28;20043;-70
2023/04/12 04:10:33;;;;;;;0.35;0.35;;;7.90;99.90;;;;;;5053941;28;20041;-68
2023/04/12 04:12:59;;;;;;;0.20;0.20;;;7.80;99.90;;;;;;5052434;28;20052;-68
2023/04/12 04:15:25;;;;;;;1.02;0.57;;;7.80;99.90;;;;;;5051849;28;20053;-69
2023/04/12 04:17:51;;;;;;;0.52;0.47;;;7.80;99.90;;;;;;5052282;28;20048;-68
2023/04/12 04:20:18;;;;;;;0.82;0.55;;;7.80;99.90;;;;;;5053655;28;20048;-68
2023/04/12 04:22:46;;;;;;;0.80;0.80;;;7.80;99.90;;;;;;5051489;28;20072;-67
2023/04/12 04:25:14;;;;;;;4.18;0.50;;;7.80;99.90;;;;;;5052366;28;20118;-68
2023/04/12 04:27:45;;;;;;;0.80;0.45;;;7.70;99.90;;;;;;5052019;28;20183;-68
2023/04/12 04:30:12;;;;;;;1.42;0.75;;;7.70;99.90;;;;;;5034872;28;20119;-67
2023/04/12 04:32:39;;;;;;;1.00;0.90;;;7.70;99.90;;;;;;5052112;28;20044;-67
2023/04/12 04:35:05;;;;;;;0.45;0.30;;;7.70;99.90;;;;;;5051933;28;20087;-68
2023/04/12 04:37:34;;;;;;;0.52;0.30;;;7.70;99.90;;;;;;5052804;28;20445;-66
2023/04/12 04:40:12;;;;;;;1.23;0.65;;;7.60;99.90;;;;;;5052184;28;20044;-67
2023/04/12 04:42:38;;;;;;;0.28;0.20;;;7.70;99.90;;;;;;5052597;28;20629;-67
2023/04/12 04:45:11;;;;;;;0.73;0.52;;;7.60;99.90;;;;;;5035422;28;20096;-66
2023/04/12 04:47:40;;;;;;;0.45;0.45;;;7.60;99.90;;;;;;5051692;28;20095;-69
2023/04/12 04:50:06;;;;;;;2.10;1.00;;;7.60;99.90;;;;;;5051152;28;20041;-67
2023/04/12 06:10:50;;;;;;;5.22;2.42;;;7.40;99.90;;;;;;5148315;27;20377;-69
2023/04/12 06:13:16;;;;;;;3.92;1.63;;;7.50;99.90;;;;;;5123373;28;20054;-68
2023/04/12 06:15:42;;;;;;;1.83;1.23;;;7.50;99.90;;;;;;5127957;27;20035;-68
2023/04/12 06:18:07;;;;;;;1.98;1.55;;;7.50;99.90;;;;;;5127902;27;20080;-68
2023/04/12 06:20:33;;;;;;;1.60;1.05;;;7.50;99.90;;;;;;5109518;28;20495;-67
2023/04/12 06:22:59;;;;;;;0.88;0.73;;;7.50;99.90;;;;;;5127573;28;20418;-67
2023/04/12 06:25:25;;;;;;;0.82;0.65;;;7.50;99.90;;;;;;5127553;27;20040;-69
2023/04/12 06:27:51;;;;;;;1.50;1.02;;;7.50;99.90;;;;;;5127987;27;20042;-64
2023/04/12 06:30:18;;;;;;;1.92;1.25;;;7.60;99.90;;;;;;5128592;27;20039;-68
2023/04/12 06:32:44;;;;;;;3.42;2.05;;;7.50;99.90;;;;;;5126964;28;20540;-69
2023/04/12 06:35:10;;;;;;;1.63;0.77;;;7.50;99.90;;;;;;5127502;27;20165;-69
2023/04/12 06:37:35;;;;;;;1.33;1.15;;;7.60;99.90;;;;;;5126674;27;20070;-70
2023/04/12 06:40:01;;;;;;;2.67;1.08;;;7.60;99.90;;;;;;5126021;28;20047;-70
2023/04/12 06:42:27;;;;;;;1.23;1.08;;;7.50;99.90;;;;;;5127306;27;20039;-68
2023/04/12 06:44:53;;;;;;;0.82;0.82;;;7.60;99.90;;;;;;5125975;28;20039;-69
2023/04/12 06:47:19;;;;;;;4.18;1.50;;;7.60;99.90;;;;;;5125954;27;20110;-70
2023/04/12 06:49:45;;;;;;;2.83;0.80;;;7.60;99.90;;;;;;5109155;28;20064;-69
2023/04/12 06:52:11;;;;;;;0.75;0.73;;;7.60;99.90;;;;;;5128216;27;20176;-70
2023/04/12 06:54:37;;;;;;;1.77;1.10;;;7.60;99.90;;;;;;5127254;27;20049;-69
2023/04/12 06:57:08;;;;;;;0.77;0.50;;;7.60;99.90;;;;;;5105677;28;20047;-70
2023/04/12 06:59:34;;;;;;;1.70;1.17;;;7.60;99.90;;;;;;5107528;28;20101;-67
2023/04/12 07:02:00;;;;;;;2.83;0.95;;;7.60;99.90;;;;;;5106857;28;20443;-70
2023/04/12 07:04:26;;;;;;;2.22;1.42;;;7.60;99.90;;;;;;5106547;28;20043;-69
2023/04/12 07:06:51;;;;;;;1.00;0.82;;;7.60;99.90;;;;;;5106185;28;20039;-70
2023/04/12 07:09:18;;;;;;;0.75;0.47;;;7.70;99.90;;;;;;5105541;28;20131;-70
2023/04/12 07:11:44;;;;;;;2.05;1.15;;;7.70;99.90;;;;;;5075138;28;20079;-69
2023/04/12 07:14:10;;;;;;;2.30;1.05;;;7.70;99.90;;;;;;5091430;28;20047;-68
2023/04/12 07:16:36;;;;;;;0.85;0.57;;;7.70;99.90;;;;;;5092804;28;20040;-68
2023/04/12 07:19:01;;;;;;;1.58;0.80;;;7.80;99.90;;;;;;5093344;28;20044;-68
2023/04/12 07:21:27;;;;;;;1.08;0.73;;;7.80;99.90;;;;;;5092097;28;20096;-68
2023/04/12 07:23:54;;;;;;;2.25;0.93;;;7.80;99.90;;;;;;5091473;28;20040;-68
2023/04/12 07:26:20;;;;;;;0.47;0.40;;;7.80;99.90;;;;;;5092213;28;20028;-68
2023/04/12 07:28:46;;;;;;;1.50;0.73;;;7.90;99.90;;;;;;5093195;28;20047;-68
2023/04/12 07:31:12;;;;;;;0.15;0.15;;;7.90;99.90;;;;;;5091287;28;20039;-69
2023/04/12 07:33:37;;;;;;;0.28;0.28;;;7.90;99.90;;;;;;5093497;28;20043;-67
2023/04/12 07:36:04;;;;;;;2.20;1.23;;;7.90;99.90;;;;;;5092999;28;20119;-68
2023/04/12 07:38:30;;;;;;;1.27;0.77;;;7.90;99.90;;;;;;5091111;28;20043;-68
2023/04/12 07:40:56;;;;;;;1.02;0.77;;;7.90;99.90;;;;;;5090554;28;20047;-69
2023/04/12 07:43:22;;;;;;;0.55;0.45;;;7.90;99.90;;;;;;5092876;28;20048;-69
2023/04/12 07:45:48;;;;;;;0.75;0.40;;;8.00;99.90;;;;;;5074611;28;20040;-69
2023/04/12 07:48:14;;;;;;;0.47;0.40;;;8.00;99.90;;;;;;5074757;28;20401;-68
2023/04/12 07:50:40;;;;;;;1.02;0.40;;;8.10;99.90;;;;;;5091544;28;20040;-68
2023/04/12 07:53:22;;;;;;;1.50;0.80;;;8.10;99.90;;;;;;5092321;28;20040;-68
2023/04/12 07:55:49;;;;;;;1.50;0.55;;;8.10;99.90;;;;;;5074737;28;20179;-67
2023/04/12 07:58:16;;;;;;;0.28;0.20;;;8.10;99.90;;;;;;5091140;28;20059;-69
2023/04/12 08:00:43;;;;;;;0.35;0.35;;;8.20;99.90;;;;;;5090774;28;20424;-67
2023/04/12 08:03:10;;;;;;;1.05;0.70;;;8.20;99.90;;;;;;5091199;28;20388;-67
2023/04/12 08:05:36;;;;;;;0.63;0.52;;;8.20;99.90;;;;;;5091715;28;20034;-67
2023/04/12 08:08:03;;;;;;;0.20;0.20;;;8.20;99.90;;;;;;5091054;28;20123;-67
2023/04/12 08:10:29;;;;;;;0.28;0.28;;;8.10;99.90;;;;;;5091156;28;20068;-69
2023/04/12 08:12:55;;;;;;;1.05;0.88;;;8.20;99.90;;;;;;5091718;28;20036;-68
2023/04/12 08:15:21;;;;;;;0.95;0.77;;;8.20;99.90;;;;;;5090981;28;20435;-69
2023/04/12 08:17:47;;;;;;;0.88;0.30;;;8.20;99.90;;;;;;5073656;28;20079;-68
2023/04/12 08:20:14;;;;;;;0.95;0.28;;;8.20;99.90;;;;;;5090259;28;20519;-67
2023/04/12 08:22:45;;;;;;;1.15;0.95;;;8.20;99.90;;;;;;5090507;28;20508;-70
2023/04/12 08:25:11;;;;;;;0.55;0.55;;;8.30;99.90;;;;;;5091240;28;20040;-69
2023/04/12 08:27:41;;;;;;;0.40;0.40;;;8.30;99.90;;;;;;5091600;28;20093;-69
2023/04/12 08:30:07;;;;;;;2.07;1.37;;;8.40;99.90;;;;;;5090957;28;20043;-70
2023/04/12 08:32:34;;;;;;;0.73;0.52;;;8.40;99.90;;;;;;5092014;28;20063;-70
2023/04/12 08:35:00;;;;;;;0.68;0.30;;;8.50;99.90;;;;;;5072995;28;20063;-68
2023/04/12 08:37:26;;;;;;;7.95;0.80;;;8.60;99.90;;;;;;5091620;28;20040;-68
2023/04/12 08:39:52;;;;;;;0.50;0.40;;;8.70;99.90;;;;;;5090549;28;20043;-69
2023/04/12 08:42:18;;;;;;;0.63;0.45;;;8.70;99.90;;;;;;5091277;28;20554;-69
2023/04/12 08:44:44;;;;;;;0.50;0.40;;;8.80;99.90;;;;;;5090372;28;20036;-69
2023/04/12 08:47:10;;;;;;;0.75;0.60;;;8.90;99.90;;;;;;5090259;28;20365;-69
2023/04/12 08:49:36;;;;;;;1.33;0.82;;;8.90;99.90;;;;;;5089713;28;20552;-69
2023/04/12 08:52:07;;;;;;;0.95;0.73;;;9.00;99.90;;;;;;5091872;28;20032;-69
2023/04/12 08:54:34;;;;;;;0.40;0.30;;;9.10;99.90;;;;;;5091009;28;20044;-70
2023/04/12 08:57:05;;;;;;;0.75;0.55;;;9.20;99.90;;;;;;5090396;28;20036;-68
2023/04/12 08:59:35;;;;;;;0.73;0.70;;;9.40;99.90;;;;;;5072974;28;20536;-68
2023/04/12 09:02:01;;;;;;;0.52;0.52;;;9.50;99.90;;;;;;5091167;28;20036;-69
2023/04/12 09:04:28;;;;;;;1.38;0.90;;;9.70;99.90;;;;;;5091585;28;20042;-70
2023/04/12 09:06:55;;;;;;;5.65;1.10;;;9.80;99.90;;;;;;5090795;28;20040;-69
2023/04/12 09:09:57;;;;;;;2.85;0.75;;;9.90;99.90;;;;;;5089444;28;20463;-70
2023/04/12 09:12:23;;;;;;;1.38;0.65;;;9.90;99.90;;;;;;5056721;28;20098;-69
2023/04/12 09:15:11;;;;;;;4.10;0.82;;;10.00;99.90;;;;;;5088927;28;20039;-69
2023/04/12 09:17:38;;;;;;;2.03;0.57;;;10.10;99.90;;;;;;5088192;28;20128;-68
2023/04/12 09:20:16;;;;;;;1.25;0.60;;;10.10;99.90;;;;;;5072754;28;20040;-69
2023/04/12 09:22:46;;;;;;;0.85;0.52;;;10.30;99.90;;;;;;5090335;28;20040;-69
2023/04/12 09:25:13;;;;;;;2.80;0.88;;;10.60;99.90;;;;;;5088688;28;20047;-67
2023/04/12 09:27:50;;;;;;;1.17;0.70;;;10.90;99.90;;;;;;5089857;28;20485;-66
2023/04/12 09:30:19;;;;;;;1.75;0.93;;;11.10;99.90;;;;;;5087904;28;20054;-66
2023/04/12 09:32:48;;;;;;;1.25;0.70;;;11.10;99.90;;;;;;5090189;28;20040;-66
2023/04/12 09:35:14;;;;;;;1.13;0.90;;;11.20;99.90;;;;;;5088244;28;20043;-66
2023/04/12 09:37:40;;;;;;;0.80;0.60;;;11.20;99.90;;;;;;5089107;28;20396;-66
2023/04/12 09:40:07;;;;;;;5.28;1.10;;;11.10;99.90;;;;;;5088295;28;20036;-66
2023/04/12 09:42:35;;;;;;;0.30;0.30;;;11.10;99.90;;;;;;5088298;28;20127;-66
2023/04/12 09:45:19;;;;;;;0.93;0.57;;;11.50;99.90;;;;;;5104723;28;20032;-66
2023/04/12 09:47:45;;;;;;;1.52;0.80;;;12.00;99.90;;;;;;5088273;28;20082;-66
2023/04/12 09:50:19;;;;;;;0.68;0.55;;;12.30;99.90;;;;;;5089527;28;20044;-66
2023/04/12 09:52:45;;;;;;;2.63;0.68;;;12.30;99.90;;;;;;5087978;28;20043;-66
2023/04/12 09:55:12;;;;;;;0.43;0.28;;;12.20;99.90;;;;;;5088418;28;20485;-65
2023/04/12 09:57:42;;;;;;;0.28;0.28;;;12.40;99.90;;;;;;5087807;28;20495;-66
2023/04/12 10:00:12;;;;;;;1.38;0.35;;;13.10;99.90;;;;;;5089906;28;20093;-65
2023/04/12 10:02:41;;;;;;;1.52;0.85;;;14.00;99.90;;;;;;5088415;28;20047;-65
2023/04/12 10:05:09;;;;;;;1.30;0.57;;;14.80;99.90;;;;;;5087743;28;20032;-65
2023/04/12 10:07:36;;;;;;;0.43;0.32;;;15.20;99.90;;;;;;5089369;28;20505;-66
2023/04/12 10:10:04;;;;;;;1.15;0.60;;;14.80;99.90;;;;;;5087920;28;20099;-66
2023/04/12 10:12:30;;;;;;;1.05;0.40;;;14.30;99.90;;;;;;5087774;28;20040;-65
2023/04/12 10:14:57;;;;;;;1.77;0.22;;;14.10;99.90;;;;;;5087906;28;20515;-67
2023/04/12 10:17:25;;;;;;;3.47;0.80;;;14.20;99.90;;;;;;5105229;28;20040;-67
2023/04/12 10:19:51;;;;;;;2.83;0.75;;;14.20;99.90;;;;;;5088773;28;20036;-65
2023/04/12 10:22:18;;;;;;;8.20;1.02;;;14.10;99.90;;;;;;5089411;28;20028;-65
2023/04/12 10:24:44;;;;;;;1.00;0.28;;;13.80;99.90;;;;;;5088172;28;20045;-65
2023/04/12 10:27:12;;;;;;;1.58;0.40;;;13.50;99.90;;;;;;5087501;28;20389;-65
2023/04/12 10:29:38;;;;;;;6.70;1.30;;;13.30;99.90;;;;;;5087810;28;20041;-65
2023/04/12 10:32:22;;;;;;;1.45;0.82;;;13.20;99.90;;;;;;5087976;28;20402;-65
2023/04/12 10:34:58;;;;;;;7.15;1.88;;;13.00;99.90;;;;;;5088598;28;20044;-65
2023/04/12 10:38:00;;;;;;;2.58;0.90;;;12.90;99.90;;;;;;5087903;28;20523;-65
2023/04/12 10:40:30;;;;;;;10.35;2.88;;;12.70;99.90;;;;;;5055255;28;20084;-65
2023/04/12 10:43:17;;;;;;;2.55;0.30;;;12.70;99.90;;;;;;5104890;28;20136;-64
2023/04/12 10:45:44;;;;;;;2.72;0.57;;;12.70;99.90;;;;;;5106006;28;20493;-64
2023/04/12 10:48:31;;;;;;;1.00;0.57;;;13.30;99.90;;;;;;5091167;28;20401;-64
2023/04/12 10:51:25;;;;;;;2.20;1.05;;;13.70;99.90;;;;;;5091766;28;20403;-64
2023/04/12 10:53:52;;;;;;;1.40;0.47;;;13.70;99.90;;;;;;5091183;28;20043;-64
2023/04/12 10:56:30;;;;;;;3.13;0.30;;;13.70;99.90;;;;;;5092681;28;20125;-64
2023/04/12 10:58:58;;;;;;;2.20;0.50;;;13.80;99.90;;;;;;5091280;28;20047;-64
2023/04/12 11:01:25;;;;;;;0.50;0.32;;;14.00;99.90;;;;;;5092010;28;20497;-65
2023/04/12 11:04:15;;;;;;;4.22;0.70;;;14.10;99.90;;;;;;5092692;28;20074;-65
2023/04/12 11:06:56;;;;;;;2.17;0.65;;;13.90;99.90;;;;;;5091511;28;20040;-65
2023/04/12 11:09:30;;;;;;;3.25;0.63;;;14.00;99.90;;;;;;5107521;28;20062;-64
2023/04/12 11:11:57;;;;;;;0.93;0.77;;;14.20;99.90;;;;;;5091152;28;20044;-64
2023/04/12 11:14:28;;;;;;;2.92;1.10;;;14.30;99.90;;;;;;5092493;28;20420;-64
2023/04/12 11:17:13;;;;;;;2.75;1.02;;;14.20;99.90;;;;;;5090441;28;20508;-64
2023/04/12 11:19:43;;;;;;;2.97;1.00;;;13.90;99.90;;;;;;5107947;28;20040;-64
2023/04/12 11:22:17;;;;;;;2.53;0.43;;;13.80;99.90;;;;;;5090716;28;20079;-65
2023/04/12 11:24:48;;;;;;;1.60;0.68;;;13.70;99.90;;;;;;5092139;28;20040;-64
2023/04/12 11:27:17;;;;;;;0.68;0.28;;;13.60;99.90;;;;;;5090789;28;20054;-64
2023/04/12 11:29:45;;;;;;;4.30;0.22;;;13.50;99.90;;;;;;5090369;28;20097;-64
2023/04/12 11:32:13;;;;;;;1.45;0.60;;;13.40;99.90;;;;;;5092235;28;20043;-64
2023/04/12 11:34:40;;;;;;;3.33;0.95;;;13.40;99.90;;;;;;5090680;28;20504;-63
2023/04/12 11:37:07;;;;;;;5.25;1.17;;;13.60;99.90;;;;;;5091500;28;20048;-66
2023/04/12 11:39:34;;;;;;;0.93;0.32;;;13.60;99.90;;;;;;5090758;28;20109;-64
2023/04/12 11:42:02;;;;;;;2.97;0.63;;;13.50;99.90;;;;;;5090786;28;20046;-64
2023/04/12 11:44:28;;;;;;;3.58;0.65;;;13.50;99.90;;;;;;5089906;28;20076;-65
2023/04/12 11:46:54;;;;;;;0.70;0.45;;;13.60;99.90;;;;;;5091726;28;20035;-64
2023/04/12 11:49:23;;;;;;;3.40;1.25;;;13.70;99.90;;;;;;5091631;28;20048;-64
2023/04/12 11:51:59;;;;;;;4.78;0.73;;;13.90;99.90;;;;;;5089795;28;20509;-65
2023/04/12 11:54:28;;;;;;;3.22;0.35;;;14.00;99.90;;;;;;5091705;28;20040;-64
2023/04/12 11:56:56;;;;;;;0.60;0.30;;;13.80;99.90;;;;;;5089468;28;20544;-65
2023/04/12 11:59:30;;;;;;;1.20;0.43;;;13.70;99.90;;;;;;5090339;28;20036;-64
2023/04/12 12:01:57;;;;;;;3.13;0.40;;;13.70;99.90;;;;;;5091611;28;20439;-65
2023/04/12 12:04:23;;;;;;;0.40;0.30;;;13.60;99.90;;;;;;5089781;28;20448;-64
2023/04/12 12:06:49;;;;;;;1.52;0.63;;;13.70;99.90;;;;;;5089268;28;20512;-65
2023/04/12 12:09:15;;;;;;;2.88;0.32;;;14.20;99.90;;;;;;5090758;28;20094;-66
2023/04/12 12:11:41;;;;;;;0.90;0.52;;;14.40;99.90;;;;;;5091463;28;20055;-64
2023/04/12 12:14:07;;;;;;;1.25;0.30;;;14.40;99.90;;;;;;5091177;28;20048;-66
2023/04/12 12:16:34;;;;;;;0.43;0.40;;;14.20;99.90;;;;;;5091185;28;20048;-65
2023/04/12 12:19:03;;;;;;;0.30;0.20;;;14.00;99.90;;;;;;5090225;28;20044;-65
2023/04/12 12:21:30;;;;;;;1.65;0.25;;;13.90;99.90;;;;;;5073915;28;20071;-65
2023/04/12 12:23:57;;;;;;;3.80;0.45;;;14.00;99.90;;;;;;5091101;28;20093;-64
2023/04/12 12:26:27;;;;;;;3.15;0.77;;;14.10;99.90;;;;;;5089985;28;20127;-65
2023/04/12 12:28:54;;;;;;;1.10;0.32;;;14.00;99.90;;;;;;5073767;28;20477;-65
2023/04/12 12:31:26;;;;;;;1.33;0.43;;;13.80;99.90;;;;;;5090651;28;20123;-65
2023/04/12 12:34:02;;;;;;;0.20;0.20;;;13.70;99.90;;;;;;5090314;28;20393;-66
2023/04/12 12:36:32;;;;;;;0.60;0.40;;;13.50;99.90;;;;;;5090500;28;20044;-65
2023/04/12 12:39:16;;;;;;;1.08;0.50;;;13.60;99.90;;;;;;5090009;28;20047;-65
2023/04/12 12:41:42;;;;;;;2.60;1.33;;;13.60;99.90;;;;;;5090718;28;20036;-65
2023/04/12 12:44:09;;;;;;;4.03;0.65;;;13.60;99.90;;;;;;5091725;28;20471;-66
2023/04/12 12:46:35;;;;;;;2.63;0.57;;;13.80;99.90;;;;;;5089731;28;20508;-65
2023/04/12 12:49:01;;;;;;;3.15;1.05;;;14.10;99.90;;;;;;5090414;28;20039;-67
2023/04/12 12:51:27;;;;;;;2.22;0.90;;;14.20;99.90;;;;;;5073323;28;20519;-65
2023/04/12 12:53:52;;;;;;;1.70;0.82;;;14.20;99.90;;;;;;5072729;28;20044;-65
2023/04/12 12:56:18;;;;;;;1.27;0.47;;;14.20;99.90;;;;;;5091549;28;20111;-65
2023/04/12 12:58:45;;;;;;;1.55;0.85;;;14.00;99.90;;;;;;5091466;28;20043;-65
2023/04/12 13:01:11;;;;;;;1.20;0.43;;;13.70;99.90;;;;;;5090771;28;20165;-65
2023/04/12 13:03:36;;;;;;;0.80;0.32;;;13.50;99.90;;;;;;5090289;28;20503;-66
2023/04/12 13:06:03;;;;;;;1.50;0.50;;;13.40;99.90;;;;;;5090176;28;20529;-65
2023/04/12 13:08:33;;;;;;;1.77;0.40;;;13.50;99.90;;;;;;5088940;28;20133;-66
2023/04/12 13:10:59;;;;;;;1.25;0.60;;;13.50;99.90;;;;;;5093687;28;20040;-65
2023/04/12 13:13:25;;;;;;;4.55;1.17;;;13.50;99.90;;;;;;5110320;28;20419;-65
2023/04/12 13:15:51;;;;;;;1.95;0.57;;;13.30;99.90;;;;;;5110812;28;20114;-65
2023/04/12 13:18:18;;;;;;;2.75;1.15;;;13.10;99.90;;;;;;5111525;28;20090;-66
2023/04/12 13:20:45;;;;;;;6.70;1.20;;;13.00;99.90;;;;;;5092814;28;20431;-66
2023/04/12 13:23:10;;;;;;;2.80;0.93;;;12.90;99.90;;;;;;5093145;28;20039;-66
2023/04/12 13:25:36;;;;;;;1.90;0.93;;;12.80;99.90;;;;;;5111334;28;20054;-66
2023/04/12 13:28:02;;;;;;;2.85;1.20;;;12.70;99.90;;;;;;5109344;28;20119;-66
2023/04/12 13:30:28;;;;;;;1.08;0.55;;;12.90;99.90;;;;;;5109970;28;20079;-68
2023/04/12 13:32:54;;;;;;;1.40;0.38;;;13.30;99.90;;;;;;5093144;28;20039;-67
2023/04/12 13:35:20;;;;;;;2.45;1.23;;;13.60;99.90;;;;;;5109153;28;20472;-65
2023/04/12 13:37:45;;;;;;;0.38;0.30;;;13.70;99.90;;;;;;5092623;28;20039;-65
2023/04/12 13:40:12;;;;;;;4.57;0.60;;;13.70;99.90;;;;;;5110408;28;20100;-66
2023/04/12 13:42:37;;;;;;;1.33;0.40;;;13.60;99.90;;;;;;5110641;28;20116;-66
2023/04/12 13:45:04;;;;;;;0.30;0.30;;;13.50;99.90;;;;;;5111067;28;20528;-65
2023/04/12 13:47:32;;;;;;;1.10;0.40;;;13.50;99.90;;;;;;5109775;28;20079;-65
2023/04/12 13:49:59;;;;;;;0.82;0.30;;;13.40;99.90;;;;;;5109118;28;20108;-66
2023/04/12 13:52:25;;;;;;;0.98;0.10;;;13.40;99.90;;;;;;5109611;28;20130;-68
2023/04/12 13:54:52;;;;;;;0.90;0.43;;;13.30;99.90;;;;;;5079353;28;20044;-67
2023/04/12 13:57:18;;;;;;;0.10;0.10;;;13.30;99.90;;;;;;5090008;28;20083;-67
2023/04/12 13:59:43;;;;;;;0.80;0.28;;;13.20;99.90;;;;;;5089261;28;20090;-67
2023/04/12 14:02:09;;;;;;;2.17;0.75;;;13.10;99.90;;;;;;5090893;28;20032;-67
2023/04/12 14:04:35;;;;;;;4.03;0.65;;;13.10;99.90;;;;;;5090228;28;20423;-67
2023/04/12 14:07:01;;;;;;;0.82;0.55;;;13.10;99.90;;;;;;5089301;28;20039;-66
2023/04/12 14:09:28;;;;;;;1.45;0.70;;;13.20;99.90;;;;;;5088910;28;20059;-67
2023/04/12 14:11:56;;;;;;;0.85;0.13;;;13.10;99.90;;;;;;5088410;28;20144;-65
2023/04/12 14:14:24;;;;;;;1.73;0.50;;;13.00;99.90;;;;;;5088537;28;20073;-67
2023/04/12 14:16:52;;;;;;;0.50;0.30;;;12.80;99.90;;;;;;5070514;28;20481;-66